createdAt,value
2023-12-11T00:00:32.072Z,94284.00
2023-12-11T00:01:32.128Z,94281.00
2023-12-11T00:02:32.055Z,94276.00
2023-12-11T00:03:32.158Z,94270.00
2023-12-11T00:04:32.071Z,94261.00
2023-12-11T00:05:32.133Z,94252.00
2023-12-11T00:06:32.131Z,94252.00
2023-12-11T00:07:32.269Z,94260.00
2023-12-11T00:08:32.075Z,94260.00
2023-12-11T00:09:32.094Z,94254.00
2023-12-11T00:10:32.080Z,94243.00
2023-12-11T00:11:32.089Z,94240.00
2023-12-11T00:12:32.141Z,94242.00
2023-12-11T00:13:32.072Z,94237.00
2023-12-11T00:14:32.115Z,94233.00
2023-12-11T00:15:32.120Z,94229.00
2023-12-11T00:16:32.082Z,94225.00
2023-12-11T00:17:32.477Z,94230.00
2023-12-11T00:18:32.213Z,94239.00
2023-12-11T00:19:32.100Z,94232.00
2023-12-11T00:20:32.097Z,94228.00
2023-12-11T00:21:32.127Z,94224.00
2023-12-11T00:22:32.092Z,94218.00
2023-12-11T00:23:32.093Z,94218.00
2023-12-11T00:24:32.094Z,94232.00
2023-12-11T00:25:32.129Z,94236.00
2023-12-11T00:26:32.107Z,94232.00
2023-12-11T00:27:32.329Z,94217.00
2023-12-11T00:28:32.152Z,94203.00
2023-12-11T00:29:32.110Z,94197.00
2023-12-11T00:30:32.107Z,94189.00
2023-12-11T00:31:32.126Z,94185.00
2023-12-11T00:32:32.107Z,94194.00
2023-12-11T00:33:32.175Z,94191.00
2023-12-11T00:34:32.143Z,94179.00
2023-12-11T00:35:32.125Z,94173.00
2023-12-11T00:36:32.115Z,94180.00
2023-12-11T00:37:32.318Z,94181.00
2023-12-11T00:38:32.099Z,94183.00
2023-12-11T00:39:32.148Z,94189.00
2023-12-11T00:40:32.088Z,94197.00
2023-12-11T00:41:32.131Z,94197.00
2023-12-11T00:42:32.162Z,94196.00
2023-12-11T00:43:44.398Z,94189.00
2023-12-11T00:44:33.136Z,94181.00
2023-12-11T00:45:32.146Z,94170.00
2023-12-11T00:46:32.152Z,94164.00
2023-12-11T00:47:32.410Z,94168.00
2023-12-11T00:48:32.186Z,94180.00
2023-12-11T00:49:32.202Z,94188.00
2023-12-11T00:50:32.175Z,94194.00
2023-12-11T00:51:32.207Z,94202.00
2023-12-11T00:52:32.147Z,94204.00
2023-12-11T00:53:32.142Z,94198.00
2023-12-11T00:54:32.166Z,94196.00
2023-12-11T00:55:32.133Z,94203.00
2023-12-11T00:56:32.122Z,94216.00
2023-12-11T00:57:32.368Z,94209.00
2023-12-11T00:58:32.154Z,94206.00
2023-12-11T00:59:32.174Z,94201.00
2023-12-11T01:00:32.139Z,94205.00
2023-12-11T01:01:32.236Z,94209.00
2023-12-11T01:02:32.136Z,94207.00
2023-12-11T01:03:32.165Z,94209.00
2023-12-11T01:04:32.279Z,94208.00
2023-12-11T01:05:32.183Z,94213.00
2023-12-11T01:06:32.173Z,94218.00
2023-12-11T01:07:32.370Z,94220.00
2023-12-11T01:08:32.141Z,94224.00
2023-12-11T01:09:32.156Z,94220.00
2023-12-11T01:10:32.148Z,94225.00
2023-12-11T01:11:32.147Z,94225.00
2023-12-11T01:12:32.172Z,94221.00
2023-12-11T01:13:32.181Z,94222.00
2023-12-11T01:14:32.200Z,94221.00
2023-12-11T01:15:32.204Z,94218.00
2023-12-11T01:16:32.192Z,94218.00
2023-12-11T01:17:38.911Z,94219.00
2023-12-11T01:18:33.374Z,94220.00
2023-12-11T01:19:32.339Z,94219.00
2023-12-11T01:20:32.216Z,94218.00
2023-12-11T01:21:32.257Z,94214.00
2023-12-11T01:22:32.241Z,94213.00
2023-12-11T01:23:32.198Z,94207.00
2023-12-11T01:24:32.264Z,94209.00
2023-12-11T01:25:32.211Z,94208.00
2023-12-11T01:26:32.241Z,94204.00
2023-12-11T01:27:32.860Z,94197.00
2023-12-11T01:28:32.240Z,94192.00
2023-12-11T01:29:32.215Z,94197.00
2023-12-11T01:30:32.264Z,94199.00
2023-12-11T01:31:32.216Z,94204.00
2023-12-11T01:32:32.282Z,94208.00
2023-12-11T01:33:32.330Z,94208.00
2023-12-11T01:34:32.349Z,94209.00
2023-12-11T01:35:32.232Z,94207.00
2023-12-11T01:36:32.277Z,94210.00
2023-12-11T01:37:32.595Z,94225.00
2023-12-11T01:38:32.273Z,94234.00
2023-12-11T01:39:32.252Z,94245.00
2023-12-11T01:40:32.244Z,94260.00
2023-12-11T01:41:32.238Z,94275.00
2023-12-11T01:42:32.273Z,94285.00
2023-12-11T01:43:32.340Z,94281.00
2023-12-11T01:44:32.305Z,94279.00
2023-12-11T01:45:32.343Z,94271.00
2023-12-11T01:46:32.329Z,94265.00
2023-12-11T01:47:32.710Z,94259.00
2023-12-11T01:48:32.516Z,94257.00
2023-12-11T01:49:32.465Z,94255.00
2023-12-11T01:50:32.451Z,94255.00
2023-12-11T01:51:32.525Z,94255.00
2023-12-11T01:52:32.481Z,94259.00
2023-12-11T01:53:32.473Z,94268.00
2023-12-11T01:54:32.564Z,94271.00
2023-12-11T01:55:32.538Z,94276.00
2023-12-11T01:56:32.672Z,94274.00
2023-12-11T01:57:32.860Z,94278.00
2023-12-11T01:58:32.645Z,94273.00
2023-12-11T01:59:32.651Z,94267.00
2023-12-11T02:00:32.711Z,94261.00
2023-12-11T02:01:32.780Z,94258.00
2023-12-11T02:02:32.731Z,94261.00
2023-12-11T02:03:32.824Z,94265.00
2023-12-11T02:04:32.958Z,94262.00
2023-12-11T02:05:32.859Z,94264.00
2023-12-11T02:06:32.833Z,94267.00
2023-12-11T02:07:32.844Z,94266.00
2023-12-11T02:08:32.883Z,94263.00
2023-12-11T02:09:32.928Z,94259.00
2023-12-11T02:10:32.988Z,94255.00
2023-12-11T02:11:32.956Z,94250.00
2023-12-11T02:12:33.009Z,94242.00
2023-12-11T02:13:33.018Z,94236.00
2023-12-11T02:14:33.039Z,94244.00
2023-12-11T02:15:33.097Z,94246.00
2023-12-11T02:16:33.130Z,94249.00
2023-12-11T02:17:33.363Z,94259.00
2023-12-11T02:18:33.367Z,94262.00
2023-12-11T02:19:33.365Z,94263.00
2023-12-11T02:20:33.219Z,94260.00
2023-12-11T02:21:33.312Z,94246.00
2023-12-11T02:22:33.296Z,94234.00
2023-12-11T02:23:33.293Z,94235.00
2023-12-11T02:24:33.402Z,94255.00
2023-12-11T02:25:33.418Z,94260.00
2023-12-11T02:26:33.440Z,94255.00
2023-12-11T02:27:33.688Z,94257.00
2023-12-11T02:28:33.482Z,94251.00
2023-12-11T02:29:33.513Z,94247.00
2023-12-11T02:30:33.573Z,94261.00
2023-12-11T02:31:33.604Z,94267.00
2023-12-11T02:32:33.665Z,94259.00
2023-12-11T02:33:33.836Z,94271.00
2023-12-11T02:34:33.916Z,94271.00
2023-12-11T02:35:33.730Z,94271.00
2023-12-11T02:36:33.803Z,94288.00
2023-12-11T02:37:33.778Z,94289.00
2023-12-11T02:38:33.841Z,94285.00
2023-12-11T02:39:33.930Z,94277.00
2023-12-11T02:40:33.897Z,94263.00
2023-12-11T02:41:33.962Z,94257.00
2023-12-11T02:42:33.988Z,94255.00
2023-12-11T02:43:34.050Z,94247.00
2023-12-11T02:44:34.065Z,94243.00
2023-12-11T02:45:34.091Z,94241.00
2023-12-11T02:46:34.100Z,94252.00
2023-12-11T02:47:34.338Z,94261.00
2023-12-11T02:48:34.314Z,94270.00
2023-12-11T02:49:34.261Z,94272.00
2023-12-11T02:50:34.272Z,94269.00
2023-12-11T02:51:34.353Z,94270.00
2023-12-11T02:52:34.274Z,94268.00
2023-12-11T02:53:34.340Z,94261.00
2023-12-11T02:55:17.070Z,94260.00
2023-12-11T02:56:16.996Z,94258.00
2023-12-11T02:57:17.011Z,94254.00
2023-12-11T02:58:17.111Z,94254.00
2023-12-11T02:59:16.984Z,94255.00
2023-12-11T03:00:17.047Z,94261.00
2023-12-11T03:01:17.144Z,94268.00
2023-12-11T03:02:16.994Z,94271.00
2023-12-11T03:03:17.035Z,94279.00
2023-12-11T03:04:17.084Z,94280.00
2023-12-11T03:05:17.010Z,94282.00
2023-12-11T03:06:17.028Z,94281.00
2023-12-11T03:07:17.081Z,94272.00
2023-12-11T03:08:16.987Z,94271.00
2023-12-11T03:09:17.015Z,94268.00
2023-12-11T03:10:17.084Z,94267.00
2023-12-11T03:11:17.043Z,94269.00
2023-12-11T03:12:17.013Z,94263.00
2023-12-11T03:13:17.068Z,94254.00
2023-12-11T03:14:17.017Z,94257.00
2023-12-11T03:15:17.034Z,94264.00
2023-12-11T03:16:17.171Z,94264.00
2023-12-11T03:17:17.052Z,94266.00
2023-12-11T03:18:17.081Z,94258.00
2023-12-11T03:19:17.098Z,94255.00
2023-12-11T03:20:17.048Z,94253.00
2023-12-11T03:21:17.075Z,94258.00
2023-12-11T03:22:17.198Z,94260.00
2023-12-11T03:23:17.050Z,94266.00
2023-12-11T03:24:17.056Z,94262.00
2023-12-11T03:25:17.126Z,94264.00
2023-12-11T03:26:17.073Z,94266.00
2023-12-11T03:27:17.039Z,94265.00
2023-12-11T03:28:17.099Z,94261.00
2023-12-11T03:29:17.069Z,94262.00
2023-12-11T03:30:17.100Z,94261.00
2023-12-11T03:31:17.201Z,94254.00
2023-12-11T03:32:17.235Z,94254.00
2023-12-11T03:33:17.248Z,94262.00
2023-12-11T03:34:17.351Z,94273.00
2023-12-11T03:35:17.320Z,94281.00
2023-12-11T03:36:17.375Z,94285.00
2023-12-11T03:37:17.384Z,94288.00
2023-12-11T03:38:17.452Z,94291.00
2023-12-11T03:39:17.457Z,94292.00
2023-12-11T03:40:17.600Z,94297.00
2023-12-11T03:41:17.548Z,94298.00
2023-12-11T03:42:17.607Z,94305.00
2023-12-11T03:43:17.743Z,94305.00
2023-12-11T03:44:17.683Z,94300.00
2023-12-11T03:45:17.765Z,94298.00
2023-12-11T03:46:17.831Z,94300.00
2023-12-11T03:47:17.866Z,94303.00
2023-12-11T03:48:17.940Z,94304.00
2023-12-11T03:49:18.088Z,94301.00
2023-12-11T03:50:17.987Z,94298.00
2023-12-11T03:51:18.034Z,94296.00
2023-12-11T03:52:18.100Z,94287.00
2023-12-11T03:53:18.121Z,94290.00
2023-12-11T03:54:18.146Z,94294.00
2023-12-11T03:55:18.227Z,94302.00
2023-12-11T03:56:18.226Z,94308.00
2023-12-11T03:57:18.287Z,94315.00
2023-12-11T03:58:18.347Z,94315.00
2023-12-11T03:59:18.364Z,94314.00
2023-12-11T04:00:18.394Z,94320.00
2023-12-11T04:01:18.572Z,94324.00
2023-12-11T04:02:18.574Z,94333.00
2023-12-11T04:03:18.541Z,94340.00
2023-12-11T04:04:18.650Z,94340.00
2023-12-11T04:05:18.619Z,94342.00
2023-12-11T04:06:18.775Z,94344.00
2023-12-11T04:07:18.724Z,94346.00
2023-12-11T04:08:18.772Z,94345.00
2023-12-11T04:09:18.801Z,94343.00
2023-12-11T04:10:18.873Z,94349.00
2023-12-11T04:11:18.908Z,94353.00
2023-12-11T04:12:18.957Z,94359.00
2023-12-11T04:13:18.964Z,94363.00
2023-12-11T04:14:19.021Z,94361.00
2023-12-11T04:15:19.076Z,94364.00
2023-12-11T04:16:19.145Z,94364.00
2023-12-11T04:17:19.151Z,94361.00
2023-12-11T04:18:19.257Z,94358.00
2023-12-11T04:19:19.388Z,94359.00
2023-12-11T04:20:19.296Z,94358.00
2023-12-11T04:21:19.328Z,94353.00
2023-12-11T04:22:19.414Z,94349.00
2023-12-11T04:23:19.464Z,94350.00
2023-12-11T04:24:19.480Z,94349.00
2023-12-11T04:25:19.529Z,94345.00
2023-12-11T04:26:19.542Z,94341.00
2023-12-11T04:27:19.542Z,94340.00
2023-12-11T04:28:19.659Z,94335.00
2023-12-11T04:29:19.662Z,94335.00
2023-12-11T04:30:19.698Z,94334.00
2023-12-11T04:31:26.915Z,94331.00
2023-12-11T04:32:26.961Z,94332.00
2023-12-11T04:33:26.969Z,94331.00
2023-12-11T04:34:26.910Z,94331.00
2023-12-11T04:35:26.887Z,94331.00
2023-12-11T04:36:26.913Z,94326.00
2023-12-11T04:37:27.095Z,94320.00
2023-12-11T04:38:26.953Z,94315.00
2023-12-11T04:39:26.912Z,94310.00
2023-12-11T04:40:26.924Z,94306.00
2023-12-11T04:41:26.898Z,94309.00
2023-12-11T04:42:26.910Z,94312.00
2023-12-11T04:43:29.916Z,94320.00
2023-12-11T04:44:26.934Z,94326.00
2023-12-11T04:45:26.934Z,94327.00
2023-12-11T04:46:26.924Z,94326.00
2023-12-11T04:47:27.060Z,94329.00
2023-12-11T04:48:27.003Z,94328.00
2023-12-11T04:49:27.018Z,94333.00
2023-12-11T04:50:26.943Z,94331.00
2023-12-11T04:51:26.933Z,94332.00
2023-12-11T04:52:26.952Z,94336.00
2023-12-11T04:53:26.943Z,94335.00
2023-12-11T04:54:26.927Z,94339.00
2023-12-11T04:55:26.999Z,94347.00
2023-12-11T04:56:26.942Z,94353.00
2023-12-11T04:57:26.959Z,94348.00
2023-12-11T04:58:26.989Z,94347.00
2023-12-11T04:59:26.987Z,94345.00
2023-12-11T05:00:27.020Z,94352.00
2023-12-11T05:01:27.442Z,94349.00
2023-12-11T05:02:27.151Z,94345.00
2023-12-11T05:03:27.202Z,94350.00
2023-12-11T05:04:27.243Z,94358.00
2023-12-11T05:05:27.311Z,94357.00
2023-12-11T05:06:27.315Z,94349.00
2023-12-11T05:07:27.469Z,94344.00
2023-12-11T05:08:30.307Z,94343.00
2023-12-11T05:09:27.454Z,94341.00
2023-12-11T05:10:27.470Z,94343.00
2023-12-11T05:11:27.459Z,94344.00
2023-12-11T05:12:27.463Z,94335.00
2023-12-11T05:13:27.419Z,94324.00
2023-12-11T05:14:27.454Z,94316.00
2023-12-11T05:15:27.438Z,94320.00
2023-12-11T05:16:28.077Z,94320.00
2023-12-11T05:17:27.624Z,94316.00
2023-12-11T05:18:27.450Z,94315.00
2023-12-11T05:19:27.524Z,94313.00
2023-12-11T05:20:27.457Z,94312.00
2023-12-11T05:21:27.436Z,94316.00
2023-12-11T05:22:27.482Z,94316.00
2023-12-11T05:23:27.458Z,94320.00
2023-12-11T05:24:27.481Z,94318.00
2023-12-11T05:25:27.461Z,94321.00
2023-12-11T05:26:27.493Z,94319.00
2023-12-11T05:27:27.736Z,94312.00
2023-12-11T05:28:27.492Z,94314.00
2023-12-11T05:29:27.450Z,94315.00
2023-12-11T05:30:27.449Z,94302.00
2023-12-11T05:31:27.468Z,94299.00
2023-12-11T05:32:27.595Z,94295.00
2023-12-11T05:33:27.550Z,94302.00
2023-12-11T05:34:27.549Z,94301.00
2023-12-11T05:35:27.481Z,94305.00
2023-12-11T05:36:27.512Z,94302.00
2023-12-11T05:37:28.244Z,94290.00
2023-12-11T05:38:27.459Z,94280.00
2023-12-11T05:39:27.488Z,94273.00
2023-12-11T05:40:27.579Z,94261.00
2023-12-11T05:41:27.481Z,94257.00
2023-12-11T05:42:27.553Z,94256.00
2023-12-11T05:43:27.641Z,94261.00
2023-12-11T05:44:27.676Z,94269.00
2023-12-11T05:45:27.802Z,94270.00
2023-12-11T05:46:27.816Z,94272.00
2023-12-11T05:47:28.267Z,94276.00
2023-12-11T05:48:28.034Z,94274.00
2023-12-11T05:49:28.149Z,94275.00
2023-12-11T05:50:28.123Z,94275.00
2023-12-11T05:51:28.162Z,94268.00
2023-12-11T05:52:28.264Z,94268.00
2023-12-11T05:53:28.346Z,94272.00
2023-12-11T05:54:28.408Z,94269.00
2023-12-11T05:55:28.488Z,94272.00
2023-12-11T05:56:28.595Z,94279.00
2023-12-11T05:57:28.817Z,94279.00
2023-12-11T05:58:28.730Z,94276.00
2023-12-11T05:59:28.724Z,94278.00
2023-12-11T06:00:28.823Z,94276.00
2023-12-11T06:01:28.963Z,94278.00
2023-12-11T06:02:28.981Z,94288.00
2023-12-11T06:03:29.031Z,94289.00
2023-12-11T06:04:29.069Z,94294.00
2023-12-11T06:05:29.191Z,94287.00
2023-12-11T06:06:31.725Z,94281.00
2023-12-11T06:07:29.499Z,94276.00
2023-12-11T06:08:29.213Z,94273.00
2023-12-11T06:09:29.210Z,94269.00
2023-12-11T06:10:29.222Z,94257.00
2023-12-11T06:11:29.236Z,94258.00
2023-12-11T06:12:29.232Z,94254.00
2023-12-11T06:13:29.244Z,94263.00
2023-12-11T06:14:29.252Z,94265.00
2023-12-11T06:15:29.223Z,94257.00
2023-12-11T06:16:29.225Z,94251.00
2023-12-11T06:17:29.572Z,94258.00
2023-12-11T06:18:29.276Z,94264.00
2023-12-11T06:19:29.297Z,94272.00
2023-12-11T06:20:29.255Z,94273.00
2023-12-11T06:21:29.246Z,94273.00
2023-12-11T06:22:29.234Z,94275.00
2023-12-11T06:23:29.258Z,94277.00
2023-12-11T06:24:29.246Z,94276.00
2023-12-11T06:25:29.244Z,94273.00
2023-12-11T06:26:29.278Z,94275.00
2023-12-11T06:27:29.627Z,94277.00
2023-12-11T06:28:29.337Z,94284.00
2023-12-11T06:29:29.250Z,94279.00
2023-12-11T06:30:29.278Z,94283.00
2023-12-11T06:31:29.272Z,94288.00
2023-12-11T06:32:29.326Z,94290.00
2023-12-11T06:33:29.330Z,94288.00
2023-12-11T06:34:29.330Z,94294.00
2023-12-11T06:35:29.327Z,94285.00
2023-12-11T06:36:29.327Z,94281.00
2023-12-11T06:37:29.530Z,94282.00
2023-12-11T06:38:29.269Z,94265.00
2023-12-11T06:39:29.313Z,94266.00
2023-12-11T06:40:29.273Z,94271.00
2023-12-11T06:41:29.305Z,94275.00
2023-12-11T06:42:29.260Z,94279.00
2023-12-11T06:43:29.301Z,94279.00
2023-12-11T06:44:29.309Z,94271.00
2023-12-11T06:45:33.046Z,94270.00
2023-12-11T06:46:30.879Z,94265.00
2023-12-11T06:47:29.511Z,94267.00
2023-12-11T06:48:29.359Z,94275.00
2023-12-11T06:49:29.476Z,94281.00
2023-12-11T06:50:29.703Z,94286.00
2023-12-11T06:51:29.350Z,94291.00
2023-12-11T06:52:29.431Z,94293.00
2023-12-11T06:53:29.424Z,94290.00
2023-12-11T06:54:29.444Z,94291.00
2023-12-11T06:55:29.641Z,94297.00
2023-12-11T06:56:29.506Z,94298.00
2023-12-11T06:57:29.778Z,94301.00
2023-12-11T06:58:29.551Z,94301.00
2023-12-11T06:59:29.678Z,94300.00
2023-12-11T07:00:31.868Z,94300.00
2023-12-11T07:01:29.854Z,94296.00
2023-12-11T07:02:30.717Z,94290.00
2023-12-11T07:03:29.942Z,94290.00
2023-12-11T07:04:30.207Z,94278.00
2023-12-11T07:05:30.126Z,94277.00
2023-12-11T07:06:30.014Z,94272.00
2023-12-11T07:07:30.266Z,94269.00
2023-12-11T07:08:30.074Z,94270.00
2023-12-11T07:09:30.092Z,94281.00
2023-12-11T07:10:30.130Z,94297.00
2023-12-11T07:11:30.147Z,94291.00
2023-12-11T07:12:30.741Z,94289.00
2023-12-11T07:13:30.328Z,94286.00
2023-12-11T07:15:37.076Z,94266.00
2023-12-11T07:16:36.852Z,94262.00
2023-12-11T07:17:37.374Z,94258.00
2023-12-11T07:18:36.960Z,94254.00
2023-12-11T07:19:36.920Z,94261.00
2023-12-11T07:20:37.012Z,94267.00
2023-12-11T07:21:36.912Z,94273.00
2023-12-11T07:22:36.939Z,94279.00
2023-12-11T07:23:36.880Z,94276.00
2023-12-11T07:24:36.922Z,94267.00
2023-12-11T07:25:37.114Z,94261.00
2023-12-11T07:26:36.938Z,94255.00
2023-12-11T07:27:36.969Z,94256.00
2023-12-11T07:28:36.876Z,94258.00
2023-12-11T07:29:36.881Z,94259.00
2023-12-11T07:30:37.472Z,94262.00
2023-12-11T07:31:36.918Z,94267.00
2023-12-11T07:32:36.919Z,94265.00
2023-12-11T07:33:37.161Z,94261.00
2023-12-11T07:34:37.075Z,94263.00
2023-12-11T07:35:37.473Z,94260.00
2023-12-11T07:36:37.230Z,94262.00
2023-12-11T07:37:37.150Z,94258.00
2023-12-11T07:38:37.200Z,94266.00
2023-12-11T07:39:37.263Z,94269.00
2023-12-11T07:40:37.550Z,94270.00
2023-12-11T07:41:38.621Z,94274.00
2023-12-11T07:42:37.337Z,94279.00
2023-12-11T07:43:37.500Z,94281.00
2023-12-11T07:44:37.398Z,94284.00
2023-12-11T07:45:37.533Z,94283.00
2023-12-11T07:46:39.376Z,94276.00
2023-12-11T07:47:37.581Z,94279.00
2023-12-11T07:48:37.643Z,94277.00
2023-12-11T07:49:37.452Z,94282.00
2023-12-11T07:50:37.471Z,94283.00
2023-12-11T07:51:37.487Z,94282.00
2023-12-11T07:52:37.445Z,94286.00
2023-12-11T07:53:37.461Z,94285.00
2023-12-11T07:54:37.496Z,94286.00
2023-12-11T07:55:37.652Z,94277.00
2023-12-11T07:56:37.483Z,94275.00
2023-12-11T07:57:37.498Z,94272.00
2023-12-11T07:58:37.420Z,94274.00
2023-12-11T07:59:37.498Z,94277.00
2023-12-11T08:00:37.531Z,94279.00
2023-12-11T08:01:37.555Z,94274.00
2023-12-11T08:02:37.458Z,94267.00
2023-12-11T08:03:37.607Z,94255.00
2023-12-11T08:04:37.594Z,94245.00
2023-12-11T08:05:37.548Z,94236.00
2023-12-11T08:06:37.592Z,94230.00
2023-12-11T08:07:37.554Z,94228.00
2023-12-11T08:08:38.482Z,94234.00
2023-12-11T08:09:37.558Z,94254.00
2023-12-11T08:10:37.551Z,94256.00
2023-12-11T08:11:37.789Z,94252.00
2023-12-11T08:12:37.498Z,94245.00
2023-12-11T08:13:37.501Z,94233.00
2023-12-11T08:14:39.544Z,94227.00
2023-12-11T08:15:37.528Z,94223.00
2023-12-11T08:16:37.561Z,94228.00
2023-12-11T08:17:37.594Z,94218.00
2023-12-11T08:18:37.592Z,94219.00
2023-12-11T08:19:37.653Z,94209.00
2023-12-11T08:20:37.573Z,94205.00
2023-12-11T08:21:37.527Z,94197.00
2023-12-11T08:22:39.897Z,94197.00
2023-12-11T08:23:42.408Z,94191.00
2023-12-11T08:24:43.017Z,94196.00
2023-12-11T08:25:42.025Z,94205.00
2023-12-11T08:26:38.876Z,94200.00
2023-12-11T08:27:41.944Z,94200.00
2023-12-11T08:28:38.167Z,94194.00
2023-12-11T08:29:42.273Z,94187.00
2023-12-11T08:30:40.203Z,94179.00
2023-12-11T08:31:37.629Z,94179.00
2023-12-11T08:32:37.578Z,94172.00
2023-12-11T08:33:39.562Z,94164.00
2023-12-11T08:34:37.745Z,94162.00
2023-12-11T08:35:37.608Z,94155.00
2023-12-11T08:36:38.187Z,94156.00
2023-12-11T08:37:39.077Z,94161.00
2023-12-11T08:38:42.571Z,94168.00
2023-12-11T08:39:37.719Z,94175.00
2023-12-11T08:40:37.682Z,94177.00
2023-12-11T08:41:38.024Z,94176.00
2023-12-11T08:42:40.895Z,94178.00
2023-12-11T08:43:37.688Z,94181.00
2023-12-11T08:44:37.655Z,94179.00
2023-12-11T08:45:37.657Z,94177.00
2023-12-11T08:46:38.039Z,94178.00
2023-12-11T08:47:39.290Z,94178.00
2023-12-11T08:48:38.143Z,94174.00
2023-12-11T08:49:38.077Z,94171.00
2023-12-11T08:50:39.488Z,94171.00
2023-12-11T08:51:38.083Z,94178.00
2023-12-11T08:52:38.083Z,94178.00
2023-12-11T08:53:38.534Z,94179.00
2023-12-11T08:54:38.246Z,94174.00
2023-12-11T08:55:38.200Z,94172.00
2023-12-11T08:56:38.651Z,94177.00
2023-12-11T08:57:38.303Z,94180.00
2023-12-11T08:58:38.301Z,94189.00
2023-12-11T08:59:38.397Z,94199.00
2023-12-11T09:00:38.584Z,94200.00
2023-12-11T09:01:38.610Z,94200.00
2023-12-11T09:02:38.432Z,94202.00
2023-12-11T09:03:38.568Z,94203.00
2023-12-11T09:04:38.669Z,94210.00
2023-12-11T09:05:38.546Z,94216.00
2023-12-11T09:06:38.638Z,94222.00
2023-12-11T09:07:39.033Z,94226.00
2023-12-11T09:08:38.628Z,94226.00
2023-12-11T09:09:38.994Z,94231.00
2023-12-11T09:10:38.704Z,94229.00
2023-12-11T09:11:38.698Z,94225.00
2023-12-11T09:12:39.091Z,94220.00
2023-12-11T09:13:38.820Z,94213.00
2023-12-11T09:14:38.828Z,94211.00
2023-12-11T09:15:38.847Z,94210.00
2023-12-11T09:16:39.043Z,94211.00
2023-12-11T09:17:38.934Z,94212.00
2023-12-11T09:18:39.135Z,94215.00
2023-12-11T09:19:44.758Z,94217.00
2023-12-11T09:20:40.094Z,94220.00
2023-12-11T09:21:39.019Z,94220.00
2023-12-11T09:22:38.970Z,94223.00
2023-12-11T09:23:39.012Z,94226.00
2023-12-11T09:24:39.075Z,94229.00
2023-12-11T09:25:39.505Z,94231.00
2023-12-11T09:26:39.024Z,94237.00
2023-12-11T09:27:39.074Z,94240.00
2023-12-11T09:28:48.233Z,94238.00
2023-12-11T09:29:40.008Z,94232.00
2023-12-11T09:30:39.110Z,94233.00
2023-12-11T09:31:39.006Z,94233.00
2023-12-11T09:32:39.183Z,94234.00
2023-12-11T09:33:39.147Z,94230.00
2023-12-11T09:34:39.229Z,94222.00
2023-12-11T09:35:39.087Z,94215.00
2023-12-11T09:36:39.097Z,94213.00
2023-12-11T09:37:39.001Z,94214.00
2023-12-11T09:38:39.029Z,94216.00
2023-12-11T09:39:39.120Z,94222.00
2023-12-11T09:40:39.017Z,94229.00
2023-12-11T09:41:39.019Z,94233.00
2023-12-11T09:42:39.036Z,94235.00
2023-12-11T09:43:39.173Z,94230.00
2023-12-11T09:44:39.614Z,94232.00
2023-12-11T09:45:39.186Z,94233.00
2023-12-11T09:46:39.218Z,94234.00
2023-12-11T09:47:39.289Z,94239.00
2023-12-11T09:48:41.238Z,94239.00
2023-12-11T09:49:39.849Z,94241.00
2023-12-11T09:50:39.491Z,94237.00
2023-12-11T09:51:39.319Z,94239.00
2023-12-11T09:52:39.295Z,94241.00
2023-12-11T09:53:39.313Z,94240.00
2023-12-11T09:54:39.395Z,94235.00
2023-12-11T09:55:39.361Z,94229.00
2023-12-11T09:56:39.479Z,94227.00
2023-12-11T09:57:39.621Z,94221.00
2023-12-11T09:58:39.600Z,94218.00
2023-12-11T09:59:39.647Z,94222.00
2023-12-11T10:00:39.889Z,94229.00
2023-12-11T10:01:39.886Z,94230.00
2023-12-11T10:02:40.095Z,94236.00
2023-12-11T10:03:39.996Z,94233.00
2023-12-11T10:04:40.064Z,94235.00
2023-12-11T10:05:40.153Z,94236.00
2023-12-11T10:06:40.214Z,94234.00
2023-12-11T10:07:40.594Z,94237.00
2023-12-11T10:08:40.336Z,94236.00
2023-12-11T10:09:40.565Z,94239.00
2023-12-11T10:10:40.438Z,94243.00
2023-12-11T10:11:40.647Z,94240.00
2023-12-11T10:12:41.591Z,94231.00
2023-12-11T10:13:41.548Z,94223.00
2023-12-11T10:14:41.569Z,94217.00
2023-12-11T10:15:40.897Z,94212.00
2023-12-11T10:16:40.792Z,94209.00
2023-12-11T10:17:42.038Z,94210.00
2023-12-11T10:18:41.009Z,94213.00
2023-12-11T10:19:41.205Z,94213.00
2023-12-11T10:20:41.588Z,94218.00
2023-12-11T10:21:41.207Z,94217.00
2023-12-11T10:22:41.154Z,94213.00
2023-12-11T10:23:41.520Z,94210.00
2023-12-11T10:24:42.170Z,94204.00
2023-12-11T10:25:41.268Z,94209.00
2023-12-11T10:26:41.331Z,94203.00
2023-12-11T10:27:41.412Z,94211.00
2023-12-11T10:28:41.438Z,94217.00
2023-12-11T10:29:41.938Z,94222.00
2023-12-11T10:30:41.513Z,94230.00
2023-12-11T10:31:41.597Z,94242.00
2023-12-11T10:32:41.657Z,94246.00
2023-12-11T10:33:42.515Z,94246.00
2023-12-11T10:34:41.816Z,94251.00
2023-12-11T10:35:42.229Z,94249.00
2023-12-11T10:36:41.780Z,94248.00
2023-12-11T10:37:41.817Z,94249.00
2023-12-11T10:38:41.840Z,94249.00
2023-12-11T10:39:41.896Z,94243.00
2023-12-11T10:40:42.154Z,94234.00
2023-12-11T10:41:41.829Z,94228.00
2023-12-11T10:42:41.949Z,94221.00
2023-12-11T10:43:55.752Z,94221.00
2023-12-11T10:44:50.136Z,94220.00
2023-12-11T10:45:43.108Z,94220.00
2023-12-11T10:46:41.912Z,94217.00
2023-12-11T10:47:41.912Z,94217.00
2023-12-11T10:48:42.059Z,94215.00
2023-12-11T10:49:42.057Z,94211.00
2023-12-11T10:50:42.176Z,94210.00
2023-12-11T10:51:41.921Z,94214.00
2023-12-11T10:52:42.173Z,94221.00
2023-12-11T10:53:41.890Z,94222.00
2023-12-11T10:54:42.247Z,94224.00
2023-12-11T10:55:42.107Z,94223.00
2023-12-11T10:56:42.009Z,94225.00
2023-12-11T10:57:42.140Z,94225.00
2023-12-11T10:58:41.902Z,94224.00
2023-12-11T10:59:42.067Z,94223.00
2023-12-11T11:00:42.040Z,94225.00
2023-12-11T11:01:42.119Z,94223.00
2023-12-11T11:02:41.947Z,94218.00
2023-12-11T11:03:41.956Z,94219.00
2023-12-11T11:04:41.920Z,94219.00
2023-12-11T11:05:41.998Z,94219.00
2023-12-11T11:06:42.137Z,94221.00
2023-12-11T11:07:41.916Z,94216.00
2023-12-11T11:08:41.980Z,94216.00
2023-12-11T11:09:42.682Z,94218.00
2023-12-11T11:10:41.927Z,94220.00
2023-12-11T11:11:42.074Z,94219.00
2023-12-11T11:12:41.989Z,94215.00
2023-12-11T11:13:41.956Z,94209.00
2023-12-11T11:14:42.012Z,94199.00
2023-12-11T11:15:42.155Z,94189.00
2023-12-11T11:16:42.032Z,94188.00
2023-12-11T11:17:42.149Z,94186.00
2023-12-11T11:18:42.240Z,94179.00
2023-12-11T11:19:42.305Z,94172.00
2023-12-11T11:20:42.621Z,94166.00
2023-12-11T11:21:42.244Z,94166.00
2023-12-11T11:22:42.505Z,94166.00
2023-12-11T11:23:42.357Z,94172.00
2023-12-11T11:24:42.307Z,94178.00
2023-12-11T11:25:42.678Z,94180.00
2023-12-11T11:26:42.359Z,94182.00
2023-12-11T11:27:42.580Z,94186.00
2023-12-11T11:28:43.154Z,94194.00
2023-12-11T11:29:42.856Z,94202.00
2023-12-11T11:30:43.246Z,94200.00
2023-12-11T11:31:42.829Z,94206.00
2023-12-11T11:32:42.779Z,94201.00
2023-12-11T11:33:44.427Z,94203.00
2023-12-11T11:34:43.190Z,94204.00
2023-12-11T11:35:43.080Z,94203.00
2023-12-11T11:36:43.046Z,94205.00
2023-12-11T11:37:43.050Z,94205.00
2023-12-11T11:38:43.094Z,94206.00
2023-12-11T11:39:46.950Z,94204.00
2023-12-11T11:40:44.683Z,94209.00
2023-12-11T11:41:43.618Z,94211.00
2023-12-11T11:42:43.259Z,94203.00
2023-12-11T11:43:43.147Z,94201.00
2023-12-11T11:44:43.077Z,94201.00
2023-12-11T11:45:43.625Z,94206.00
2023-12-11T11:46:43.100Z,94217.00